Wing, AL (36483)

1:07 PM CDT on September 01, 2015 (GMT -0500)
RAWS | | Change Station
CLOSE
Current Station
Personal Weather Station
Location: Wing, AL
Elevation: 274 ft
Nearby Weather Stations

Elev 274 ft 31.09 °N, 86.55 °W | Updated 51 minutes ago

Mostly Cloudy
Mostly Cloudy
93.0 °F
Feels Like 93.0 °F
N
3.0
Wind Variable Wind from West
Gusts 7.0 mph

Today
High -- | Low -- °F
--% Chance of Precip.
Yesterday
High -- | Low -- °F
Precip. -- in
6:22 AM 7:09 PM
Waning Gibbous, 87% visible
Pressure 30.06 in
Visibility 10.0 miles
Clouds Scattered Clouds 4600 ft
Mostly Cloudy 6000 ft
Mostly Cloudy 9000 ft
Dew Point 69.0 °F
Humidity 46%
Rainfall in
Snow Depth Not available.
UV 6 out of 12
Pollen 7.90 out of 12
Air Quality Not available.
Flu Activity Not available.
METAR K79J 011756Z AUTO 32004KT 10SM SCT046 BKN060 BKN090 34/21 A3007 RMK AO2 SLP179 T03440206 10361 20233 58008
Pressure 30.06 in
Visibility 10.0 miles
Clouds Scattered Clouds 4600 ft
Mostly Cloudy 6000 ft
Mostly Cloudy 9000 ft
Dew Point 69.0 °F
Humidity 46%
Rainfall in
Snow Depth Not available.
UV 6 out of 12
Pollen 7.90 out of 12
Air Quality Not available.
Flu Activity Not available.
METAR K79J 011756Z AUTO 32004KT 10SM SCT046 BKN060 BKN090 34/21 A3007 RMK AO2 SLP179 T03440206 10361 20233 58008

10-Day Weather Forecast

×

Almanac

Astronomy

Sep. 01, 2015 Rise Set
Actual Time
Civil Twilight
Nautical Twilight
Astronomical Twilight
Moon
Length of Visible Light
Length of Day
Tomorrow will be .
, % of the Moon is Illuminated

Today's Extremes

State Highs State Lows

Community

WunderPhotos

Upload Photos

1,851,588 photos uploaded!

WunderBlogs® & News

Nearby

Air Quality

  Air Quality AQ Index Pollutant
Not available.

Snow Depth

Station Depth Elevation

Earthquake Activity

City Distance Mag. Time & Date
Minimum magnitude displayed is 2.5.

Coastal Water Temperatures

Place Temperature

Stations

Nearby Weather Stations

Station Location Temp. Windchill Dew Point Humidity Wind Precip. Elev Updated Type